createdAt,value
2017-11-25T00:00:53.722Z,91.47
2017-11-25T00:01:56.226Z,91.75
2017-11-25T00:02:58.692Z,92.09
2017-11-25T00:04:01.215Z,92.23
2017-11-25T00:05:03.712Z,91.57
2017-11-25T00:06:06.195Z,91.12
2017-11-25T00:07:08.677Z,90.91
2017-11-25T00:08:11.200Z,91.04
2017-11-25T00:09:13.678Z,91.18
2017-11-25T00:10:16.159Z,91.45
2017-11-25T00:11:18.638Z,91.14
2017-11-25T00:12:21.105Z,91.01
2017-11-25T00:13:23.572Z,90.66
2017-11-25T00:14:26.036Z,90.65
2017-11-25T00:15:28.500Z,91.11
2017-11-25T00:16:30.987Z,91.39
2017-11-25T00:17:33.491Z,91.66
2017-11-25T00:18:35.974Z,91.33
2017-11-25T00:19:38.439Z,91.61
2017-11-25T00:20:40.948Z,91.70
2017-11-25T00:21:43.424Z,91.67
2017-11-25T00:22:45.964Z,91.52
2017-11-25T00:23:48.429Z,91.10
2017-11-25T00:24:50.928Z,91.35
2017-11-25T00:25:53.437Z,91.31
2017-11-25T00:26:55.907Z,91.24
2017-11-25T00:27:58.386Z,91.28
2017-11-25T00:29:00.867Z,91.45
2017-11-25T00:30:03.361Z,91.24
2017-11-25T00:31:05.862Z,90.88
2017-11-25T00:32:08.364Z,91.24
2017-11-25T00:33:10.833Z,91.04
2017-11-25T00:34:13.319Z,90.94
2017-11-25T00:35:15.877Z,91.10
2017-11-25T00:36:18.351Z,91.26
2017-11-25T00:37:20.811Z,91.45
2017-11-25T00:38:23.293Z,91.53
2017-11-25T00:39:25.811Z,91.70
2017-11-25T00:40:28.314Z,92.00
2017-11-25T00:41:30.780Z,91.63
2017-11-25T00:42:33.260Z,91.29
2017-11-25T00:43:35.742Z,91.23
2017-11-25T00:44:38.210Z,91.38
2017-11-25T00:45:40.710Z,91.37
2017-11-25T00:46:43.179Z,91.19
2017-11-25T00:47:45.657Z,91.55
2017-11-25T00:48:48.145Z,91.39
2017-11-25T00:49:50.696Z,91.35
2017-11-25T00:50:53.177Z,90.82
2017-11-25T00:51:55.656Z,91.60
2017-11-25T00:52:58.118Z,91.35
2017-11-25T00:54:00.594Z,91.15
2017-11-25T00:55:03.065Z,90.77
2017-11-25T00:56:05.562Z,91.15
2017-11-25T00:57:08.029Z,90.63
2017-11-25T00:58:10.522Z,90.57
2017-11-25T00:59:13.018Z,90.57
2017-11-25T01:00:15.503Z,90.11
2017-11-25T01:01:17.990Z,90.09
2017-11-25T01:02:20.475Z,89.91
2017-11-25T01:03:22.945Z,90.42
2017-11-25T01:04:25.415Z,90.32
2017-11-25T01:05:27.872Z,90.30
2017-11-25T01:06:30.347Z,90.61
2017-11-25T01:07:32.822Z,90.39
2017-11-25T01:08:35.300Z,90.27
2017-11-25T01:09:37.777Z,90.53
2017-11-25T01:10:40.241Z,90.61
2017-11-25T01:11:42.712Z,90.72
2017-11-25T01:12:45.274Z,90.78
2017-11-25T01:13:47.751Z,91.17
2017-11-25T01:14:50.213Z,90.99
2017-11-25T01:15:52.740Z,90.17
2017-11-25T01:16:55.260Z,90.33
2017-11-25T01:17:57.803Z,90.72
2017-11-25T01:19:00.441Z,91.21
2017-11-25T01:20:02.971Z,90.87
2017-11-25T01:21:05.508Z,91.09
2017-11-25T01:22:08.037Z,91.37
2017-11-25T01:23:10.563Z,91.61
2017-11-25T01:24:13.098Z,91.88
2017-11-25T01:25:15.635Z,92.20
2017-11-25T01:26:18.168Z,92.46
2017-11-25T01:27:20.699Z,92.58
2017-11-25T01:28:23.457Z,92.65
2017-11-25T01:29:25.981Z,92.75
2017-11-25T01:30:28.521Z,92.75
2017-11-25T01:31:31.035Z,93.08
2017-11-25T01:32:33.708Z,92.91
2017-11-25T01:33:36.254Z,93.00
2017-11-25T01:34:38.888Z,92.42
2017-11-25T01:35:41.425Z,92.67
2017-11-25T01:36:43.964Z,92.50
2017-11-25T01:37:46.514Z,92.84
2017-11-25T01:38:49.100Z,93.12
2017-11-25T01:39:51.745Z,93.41
2017-11-25T01:40:54.276Z,93.86
2017-11-25T01:41:56.857Z,94.01
2017-11-25T01:42:59.369Z,93.92
2017-11-25T01:44:01.935Z,93.75
2017-11-25T01:45:04.452Z,93.54
2017-11-25T01:46:06.989Z,93.63
2017-11-25T01:47:09.531Z,93.87
2017-11-25T01:48:12.052Z,93.05
2017-11-25T01:49:14.590Z,92.97
2017-11-25T01:50:17.117Z,92.65
2017-11-25T01:51:19.683Z,92.67
2017-11-25T01:52:22.207Z,92.88
2017-11-25T01:53:24.716Z,92.86
2017-11-25T01:54:27.226Z,92.51
2017-11-25T01:55:29.766Z,92.48
2017-11-25T01:56:32.298Z,92.64
2017-11-25T01:57:34.827Z,92.72
2017-11-25T01:58:37.346Z,93.15
2017-11-25T01:59:39.884Z,93.03
2017-11-25T02:00:42.420Z,93.08
2017-11-25T02:01:44.952Z,93.27
2017-11-25T02:02:47.472Z,93.50
2017-11-25T02:03:50.000Z,93.90
2017-11-25T02:04:52.544Z,94.16
2017-11-25T02:05:55.086Z,94.38
2017-11-25T02:06:57.622Z,93.95
2017-11-25T02:08:00.143Z,94.07
2017-11-25T02:09:02.668Z,94.04
2017-11-25T02:10:05.183Z,94.41
2017-11-25T02:11:07.696Z,94.55
2017-11-25T02:12:10.207Z,94.18
2017-11-25T02:13:12.719Z,93.32
2017-11-25T02:14:15.244Z,92.99
2017-11-25T02:15:17.769Z,92.92
2017-11-25T02:16:20.319Z,93.08
2017-11-25T02:17:22.828Z,93.17
2017-11-25T02:18:25.345Z,92.62
2017-11-25T02:19:27.859Z,92.43
2017-11-25T02:20:30.372Z,92.09
2017-11-25T02:21:32.901Z,92.06
2017-11-25T02:22:35.425Z,91.86
2017-11-25T02:23:37.939Z,91.56
2017-11-25T02:24:40.459Z,91.36
2017-11-25T02:25:42.985Z,90.93
2017-11-25T02:26:45.503Z,91.03
2017-11-25T02:27:48.017Z,91.33
2017-11-25T02:28:50.531Z,91.56
2017-11-25T02:29:53.055Z,91.88
2017-11-25T02:30:55.580Z,91.65
2017-11-25T02:31:58.115Z,91.73
2017-11-25T02:33:00.638Z,91.50
2017-11-25T02:34:03.173Z,91.23
2017-11-25T02:35:05.699Z,90.95
2017-11-25T02:36:08.209Z,91.16
2017-11-25T02:37:10.750Z,90.76
2017-11-25T02:38:13.271Z,90.92
2017-11-25T02:39:15.823Z,90.40
2017-11-25T02:40:18.343Z,90.84
2017-11-25T02:41:20.877Z,90.82
2017-11-25T02:42:23.388Z,90.71
2017-11-25T02:43:25.904Z,90.64
2017-11-25T02:44:28.444Z,90.64
2017-11-25T02:45:30.983Z,90.31
2017-11-25T02:46:33.496Z,90.32
2017-11-25T02:47:36.036Z,90.22
2017-11-25T02:48:38.565Z,89.85
2017-11-25T02:49:41.087Z,89.85
2017-11-25T02:50:43.605Z,89.68
2017-11-25T02:51:46.135Z,90.15
2017-11-25T02:52:48.642Z,89.85
2017-11-25T02:53:51.166Z,89.68
2017-11-25T02:54:53.675Z,89.49
2017-11-25T02:55:56.199Z,90.11
2017-11-25T02:56:58.737Z,89.83
2017-11-25T02:58:01.266Z,89.60
2017-11-25T02:59:03.802Z,89.47
2017-11-25T03:00:06.324Z,89.67
2017-11-25T03:01:08.855Z,89.51
2017-11-25T03:02:11.381Z,89.37
2017-11-25T03:03:13.885Z,88.99
2017-11-25T03:04:16.433Z,89.13
2017-11-25T03:05:18.957Z,89.80
2017-11-25T03:06:21.467Z,89.58
2017-11-25T03:07:23.985Z,89.45
2017-11-25T03:08:26.493Z,89.26
2017-11-25T03:09:29.012Z,88.99
2017-11-25T03:10:31.530Z,88.47
2017-11-25T03:11:34.055Z,88.04
2017-11-25T03:12:36.582Z,87.91
2017-11-25T03:13:39.095Z,87.73
2017-11-25T03:14:41.637Z,88.12
2017-11-25T03:15:44.154Z,88.09
2017-11-25T03:16:46.675Z,88.23
2017-11-25T03:17:49.185Z,87.28
2017-11-25T03:18:51.687Z,87.99
2017-11-25T03:19:54.206Z,87.78
2017-11-25T03:20:56.708Z,87.68
2017-11-25T03:21:59.206Z,88.47
2017-11-25T03:23:01.814Z,88.98
2017-11-25T03:24:04.345Z,88.59
2017-11-25T03:25:06.847Z,88.24
2017-11-25T03:26:09.351Z,88.48
2017-11-25T03:27:11.865Z,88.67
2017-11-25T03:28:14.413Z,87.92
2017-11-25T03:29:16.935Z,87.83
2017-11-25T03:30:19.455Z,88.16
2017-11-25T03:31:21.957Z,88.42
2017-11-25T03:32:24.470Z,88.15
2017-11-25T03:33:26.971Z,88.81
2017-11-25T03:34:29.488Z,89.32
2017-11-25T03:35:32.013Z,89.49
2017-11-25T03:36:34.524Z,88.91
2017-11-25T03:37:37.094Z,88.84
2017-11-25T03:38:39.608Z,89.04
2017-11-25T03:39:42.144Z,88.65
2017-11-25T03:40:44.655Z,87.85
2017-11-25T03:41:47.171Z,88.41
2017-11-25T03:42:49.717Z,87.97
2017-11-25T03:43:52.223Z,88.00
2017-11-25T03:44:54.731Z,88.24
2017-11-25T03:45:57.235Z,88.36
2017-11-25T03:46:59.757Z,88.02
2017-11-25T03:48:02.268Z,88.05
2017-11-25T03:49:04.786Z,88.54
2017-11-25T03:50:07.318Z,88.43
2017-11-25T03:51:09.839Z,88.74
2017-11-25T03:52:12.352Z,88.70
2017-11-25T03:53:14.873Z,88.14
2017-11-25T03:54:17.393Z,88.38
2017-11-25T03:55:19.899Z,87.94
2017-11-25T03:56:22.419Z,88.33
2017-11-25T03:57:24.947Z,88.92
2017-11-25T03:58:27.473Z,87.98
2017-11-25T03:59:29.972Z,88.07
2017-11-25T04:00:32.488Z,88.23
2017-11-25T04:01:34.982Z,88.28
2017-11-25T04:02:37.497Z,88.11
2017-11-25T04:03:40.008Z,87.77
2017-11-25T04:04:42.559Z,87.93
2017-11-25T04:05:45.081Z,88.12
2017-11-25T04:06:47.631Z,88.41
2017-11-25T04:07:50.147Z,88.16
2017-11-25T04:08:52.674Z,88.08
2017-11-25T04:09:55.208Z,88.04
2017-11-25T04:10:57.759Z,87.72
2017-11-25T04:12:00.277Z,87.81
2017-11-25T04:13:02.789Z,88.35
2017-11-25T04:14:05.303Z,88.36
2017-11-25T04:15:07.831Z,88.22
2017-11-25T04:16:10.339Z,87.84
2017-11-25T04:17:12.843Z,88.61
2017-11-25T04:18:15.355Z,88.31
2017-11-25T04:19:17.864Z,88.10
2017-11-25T04:20:20.363Z,87.92
2017-11-25T04:21:22.906Z,88.42
2017-11-25T04:22:25.417Z,89.30
2017-11-25T04:23:27.915Z,88.78
2017-11-25T04:24:30.444Z,88.91
2017-11-25T04:25:32.948Z,88.78
2017-11-25T04:26:35.470Z,87.93
2017-11-25T04:27:37.979Z,87.84
2017-11-25T04:28:40.497Z,88.53
2017-11-25T04:29:43.003Z,88.42
2017-11-25T04:30:45.515Z,88.43
2017-11-25T04:31:48.051Z,87.36
2017-11-25T04:32:50.565Z,87.24
2017-11-25T04:33:53.086Z,88.12
2017-11-25T04:34:55.591Z,88.88
2017-11-25T04:35:58.121Z,88.04
2017-11-25T04:37:00.627Z,88.01
2017-11-25T04:38:03.123Z,87.14
2017-11-25T04:39:05.638Z,87.47
2017-11-25T04:40:08.162Z,87.74
2017-11-25T04:41:10.695Z,87.25
2017-11-25T04:42:13.219Z,87.13
2017-11-25T04:43:15.741Z,87.66
2017-11-25T04:44:18.269Z,87.54
2017-11-25T04:45:20.781Z,87.51
2017-11-25T04:46:23.305Z,87.58
2017-11-25T04:47:25.816Z,88.17
2017-11-25T04:48:28.343Z,88.45
2017-11-25T04:49:30.924Z,88.01
2017-11-25T04:50:33.442Z,88.01
2017-11-25T04:51:35.981Z,88.23
2017-11-25T04:52:38.511Z,87.67
2017-11-25T04:53:41.036Z,87.13
2017-11-25T04:54:43.547Z,87.58
2017-11-25T04:55:46.061Z,87.48
2017-11-25T04:56:48.564Z,87.07
2017-11-25T04:57:51.112Z,87.03
2017-11-25T04:58:53.612Z,87.29
2017-11-25T04:59:56.145Z,87.46
2017-11-25T05:00:58.658Z,87.26
2017-11-25T05:02:01.185Z,86.91
2017-11-25T05:03:03.714Z,88.81
2017-11-25T05:04:06.219Z,88.97
2017-11-25T05:05:08.731Z,90.57
2017-11-25T05:06:11.231Z,88.46
2017-11-25T05:07:13.735Z,87.56
2017-11-25T05:08:16.253Z,86.91
2017-11-25T05:09:18.764Z,86.82
2017-11-25T05:10:21.264Z,86.54
2017-11-25T05:11:23.786Z,87.40
2017-11-25T05:12:26.303Z,88.34
2017-11-25T05:13:28.831Z,88.08
2017-11-25T05:14:31.442Z,87.32
2017-11-25T05:15:33.944Z,87.35
2017-11-25T05:16:37.012Z,86.72
2017-11-25T05:17:39.520Z,86.56
2017-11-25T05:18:42.023Z,86.82
2017-11-25T05:19:44.531Z,89.47
2017-11-25T05:20:47.085Z,88.98
2017-11-25T05:21:49.600Z,89.03
2017-11-25T05:22:52.116Z,88.30
2017-11-25T05:23:54.628Z,87.56
2017-11-25T05:24:57.148Z,86.94
2017-11-25T05:25:59.706Z,86.80
2017-11-25T05:27:02.211Z,86.59
2017-11-25T05:28:04.735Z,86.04
2017-11-25T05:29:07.249Z,86.55
2017-11-25T05:30:09.775Z,87.81
2017-11-25T05:31:12.285Z,87.98
2017-11-25T05:32:15.063Z,88.00
2017-11-25T05:33:17.590Z,87.44
2017-11-25T05:34:20.117Z,87.52
2017-11-25T05:35:22.625Z,87.43
2017-11-25T05:36:25.133Z,86.13
2017-11-25T05:37:27.659Z,86.40
2017-11-25T05:38:30.188Z,85.85
2017-11-25T05:39:32.714Z,86.00
2017-11-25T05:40:35.224Z,86.76
2017-11-25T05:41:37.751Z,87.61
2017-11-25T05:42:40.254Z,88.07
2017-11-25T05:43:42.818Z,88.30
2017-11-25T05:44:45.344Z,89.02
2017-11-25T05:45:47.874Z,89.36
2017-11-25T05:46:50.384Z,89.27
2017-11-25T05:47:52.918Z,89.09
2017-11-25T05:48:55.440Z,88.89
2017-11-25T05:49:57.968Z,89.07
2017-11-25T05:51:00.532Z,89.30
2017-11-25T05:52:03.070Z,89.20
2017-11-25T05:53:05.580Z,89.19
2017-11-25T05:54:08.121Z,89.83
2017-11-25T05:55:10.633Z,89.22
2017-11-25T05:56:13.162Z,88.46
2017-11-25T05:57:15.680Z,88.25
2017-11-25T05:58:18.223Z,88.30
2017-11-25T05:59:20.749Z,88.13
2017-11-25T06:00:23.260Z,88.02
2017-11-25T06:01:25.818Z,87.75
2017-11-25T06:02:28.323Z,87.27
2017-11-25T06:03:30.853Z,87.26
2017-11-25T06:04:33.402Z,86.72
2017-11-25T06:05:35.914Z,86.56
2017-11-25T06:06:38.457Z,87.22
2017-11-25T06:07:40.967Z,87.34
2017-11-25T06:08:43.506Z,88.09
2017-11-25T06:09:46.029Z,86.72
2017-11-25T06:10:48.558Z,84.79
2017-11-25T06:11:51.135Z,84.80
2017-11-25T06:12:53.665Z,84.99
2017-11-25T06:13:56.180Z,84.87
2017-11-25T06:14:58.692Z,84.90
2017-11-25T06:16:01.218Z,85.64
2017-11-25T06:17:03.749Z,85.53
2017-11-25T06:18:06.255Z,85.66
2017-11-25T06:19:08.761Z,85.94
2017-11-25T06:20:11.272Z,85.94
2017-11-25T06:21:13.771Z,85.71
2017-11-25T06:22:16.379Z,86.14
2017-11-25T06:23:18.883Z,86.26
2017-11-25T06:24:21.383Z,85.96
2017-11-25T06:25:23.892Z,85.95
2017-11-25T06:26:26.433Z,86.41
2017-11-25T06:27:28.979Z,86.50
2017-11-25T06:28:31.505Z,85.95
2017-11-25T06:29:34.097Z,86.34
2017-11-25T06:30:36.616Z,86.88
2017-11-25T06:31:39.286Z,86.91
2017-11-25T06:32:41.829Z,87.75
2017-11-25T06:33:44.361Z,87.58
2017-11-25T06:34:46.863Z,87.43
2017-11-25T06:35:49.433Z,86.97
2017-11-25T06:36:52.015Z,87.61
2017-11-25T06:37:54.561Z,87.89
2017-11-25T06:38:57.081Z,87.89
2017-11-25T06:39:59.602Z,87.89
2017-11-25T06:41:02.106Z,87.62
2017-11-25T06:42:04.653Z,87.36
2017-11-25T06:43:07.233Z,87.33
2017-11-25T06:44:09.736Z,87.35
2017-11-25T06:45:12.268Z,87.17
2017-11-25T06:46:14.786Z,87.38
2017-11-25T06:47:17.287Z,87.41
2017-11-25T06:48:19.847Z,87.23
2017-11-25T06:49:22.369Z,87.78
2017-11-25T06:50:24.889Z,88.06
2017-11-25T06:51:27.413Z,87.85
2017-11-25T06:52:29.927Z,88.44
2017-11-25T06:53:32.456Z,87.18
2017-11-25T06:54:34.975Z,86.27
2017-11-25T06:55:37.506Z,86.29
2017-11-25T06:56:40.054Z,87.05
2017-11-25T06:57:42.592Z,85.32
2017-11-25T06:58:45.163Z,84.16
2017-11-25T06:59:47.827Z,85.64
2017-11-25T07:00:50.343Z,85.78
2017-11-25T07:01:52.873Z,86.24
2017-11-25T07:02:55.379Z,86.33
2017-11-25T07:03:57.932Z,87.26
2017-11-25T07:05:00.457Z,87.75
2017-11-25T07:06:03.016Z,87.77
2017-11-25T07:07:05.536Z,88.10
2017-11-25T07:08:08.079Z,87.94
2017-11-25T07:09:10.621Z,87.97
2017-11-25T07:10:13.148Z,88.02
2017-11-25T07:11:15.708Z,87.88
2017-11-25T07:12:18.229Z,87.83
2017-11-25T07:13:20.748Z,88.02
2017-11-25T07:14:23.283Z,87.71
2017-11-25T07:15:25.799Z,87.43
2017-11-25T07:16:28.319Z,88.18
2017-11-25T07:17:30.868Z,88.93
2017-11-25T07:18:33.380Z,88.37
2017-11-25T07:19:35.921Z,87.62
2017-11-25T07:20:38.455Z,88.16
2017-11-25T07:21:40.962Z,88.61
2017-11-25T07:22:43.518Z,88.71
2017-11-25T07:23:46.048Z,88.23
2017-11-25T07:24:48.608Z,87.48
2017-11-25T07:25:51.124Z,87.37
2017-11-25T07:26:53.639Z,87.81
2017-11-25T07:27:56.173Z,88.26
2017-11-25T07:28:58.721Z,87.95
2017-11-25T07:30:01.297Z,87.79
2017-11-25T07:31:03.830Z,88.65
2017-11-25T07:32:06.391Z,88.85
2017-11-25T07:33:08.931Z,88.66
2017-11-25T07:34:11.448Z,85.25
2017-11-25T07:35:14.001Z,86.70
2017-11-25T07:36:16.545Z,85.74
2017-11-25T07:37:19.068Z,85.53
2017-11-25T07:38:21.583Z,85.44
2017-11-25T07:39:24.130Z,84.73
2017-11-25T07:40:26.671Z,85.51
2017-11-25T07:41:29.232Z,86.12
2017-11-25T07:42:31.746Z,86.21
2017-11-25T07:43:34.264Z,87.58
2017-11-25T07:44:36.803Z,87.82
2017-11-25T07:45:39.365Z,88.04
2017-11-25T07:46:41.902Z,88.47
2017-11-25T07:47:44.434Z,88.49
2017-11-25T07:48:46.998Z,89.08
2017-11-25T07:49:49.507Z,89.05
2017-11-25T07:50:52.061Z,89.49
2017-11-25T07:51:54.575Z,89.43
2017-11-25T07:52:57.106Z,89.49
2017-11-25T07:53:59.624Z,89.97
2017-11-25T07:55:02.164Z,89.84
2017-11-25T07:56:04.755Z,89.63
2017-11-25T07:57:14.520Z,90.10
2017-11-25T07:58:17.045Z,90.06
2017-11-25T07:59:19.582Z,89.34
2017-11-25T08:00:22.105Z,89.00
2017-11-25T08:01:24.638Z,88.74
2017-11-25T08:02:27.165Z,89.26
2017-11-25T08:03:29.684Z,89.63
2017-11-25T08:04:32.217Z,89.67
2017-11-25T08:05:34.739Z,89.97
2017-11-25T08:06:37.295Z,90.39
2017-11-25T08:07:40.643Z,90.71
2017-11-25T08:08:43.183Z,90.69
2017-11-25T08:09:45.643Z,90.86
2017-11-25T08:10:48.162Z,90.94
2017-11-25T08:11:50.692Z,90.77
2017-11-25T08:12:53.170Z,90.41
2017-11-25T08:13:55.661Z,90.98
2017-11-25T08:14:58.127Z,90.81
2017-11-25T08:16:00.607Z,90.36
2017-11-25T08:17:03.111Z,90.10
2017-11-25T08:18:05.610Z,89.99
2017-11-25T08:19:08.099Z,89.93
2017-11-25T08:20:10.576Z,89.56
2017-11-25T08:21:13.059Z,90.06
2017-11-25T08:22:15.557Z,90.17
2017-11-25T08:23:18.023Z,90.96
2017-11-25T08:24:20.502Z,91.07
2017-11-25T08:25:22.971Z,90.58
2017-11-25T08:26:25.452Z,90.58
2017-11-25T08:27:27.963Z,90.28
2017-11-25T08:28:30.508Z,90.55
2017-11-25T08:29:33.036Z,90.49
2017-11-25T08:30:35.551Z,90.43
2017-11-25T08:31:38.043Z,89.73
2017-11-25T08:32:40.550Z,89.69
2017-11-25T08:33:43.037Z,89.78
2017-11-25T08:34:45.501Z,89.40
2017-11-25T08:35:47.968Z,89.46
2017-11-25T08:36:50.444Z,89.33
2017-11-25T08:37:52.946Z,88.40
2017-11-25T08:38:55.403Z,88.55
2017-11-25T08:39:57.881Z,89.19
2017-11-25T08:41:00.409Z,88.73
2017-11-25T08:42:02.883Z,89.33
2017-11-25T08:43:05.382Z,88.54
2017-11-25T08:44:07.852Z,88.17
2017-11-25T08:45:10.320Z,88.70
2017-11-25T08:46:12.796Z,87.98
2017-11-25T08:47:15.331Z,88.46
2017-11-25T08:48:17.833Z,88.72
2017-11-25T08:49:20.306Z,89.24
2017-11-25T08:50:22.788Z,89.07
2017-11-25T08:51:25.290Z,89.61
2017-11-25T08:52:27.848Z,90.10
2017-11-25T08:53:30.345Z,89.85
2017-11-25T08:54:32.831Z,89.50
2017-11-25T08:55:35.316Z,88.96
2017-11-25T08:56:37.785Z,88.21
2017-11-25T08:57:40.266Z,89.12
2017-11-25T08:58:42.905Z,89.12
2017-11-25T08:59:45.398Z,89.24
2017-11-25T09:00:47.877Z,89.51
2017-11-25T09:01:50.340Z,90.13
2017-11-25T09:02:52.825Z,90.06
2017-11-25T09:03:55.353Z,89.73
2017-11-25T09:04:57.842Z,89.60
2017-11-25T09:06:00.432Z,89.53
2017-11-25T09:07:02.975Z,89.35
2017-11-25T09:08:05.453Z,89.13
2017-11-25T09:09:07.966Z,88.54
2017-11-25T09:10:10.451Z,88.42
2017-11-25T09:11:12.938Z,88.43
2017-11-25T09:12:15.400Z,89.09
2017-11-25T09:13:17.890Z,89.18
2017-11-25T09:14:20.486Z,89.29
2017-11-25T09:15:22.975Z,89.09
2017-11-25T09:16:25.444Z,88.71
2017-11-25T09:17:27.915Z,88.76
2017-11-25T09:18:30.395Z,88.76
2017-11-25T09:19:32.879Z,88.42
2017-11-25T09:20:35.410Z,88.78
2017-11-25T09:21:37.927Z,89.44
2017-11-25T09:22:40.436Z,89.72
2017-11-25T09:23:42.922Z,89.60
2017-11-25T09:24:45.440Z,89.94
2017-11-25T09:25:47.931Z,89.84
2017-11-25T09:26:50.426Z,89.23
2017-11-25T09:27:52.908Z,89.02
2017-11-25T09:28:55.387Z,88.97
2017-11-25T09:29:57.896Z,89.07
2017-11-25T09:31:00.368Z,88.64
2017-11-25T09:32:02.901Z,88.81
2017-11-25T09:33:05.396Z,88.15
2017-11-25T09:34:07.870Z,87.63
2017-11-25T09:35:10.384Z,87.11
2017-11-25T09:36:12.949Z,86.96
2017-11-25T09:37:15.425Z,86.90
2017-11-25T09:38:17.967Z,86.87
2017-11-25T09:39:20.541Z,87.38
2017-11-25T09:40:23.085Z,87.97
2017-11-25T09:41:25.547Z,87.71
2017-11-25T09:42:28.032Z,87.72
2017-11-25T09:43:30.546Z,87.91
2017-11-25T09:44:33.043Z,87.56
2017-11-25T09:45:35.590Z,87.21
2017-11-25T09:46:38.079Z,86.79
2017-11-25T09:47:40.543Z,85.78
2017-11-25T09:48:43.231Z,85.63
2017-11-25T09:49:45.723Z,86.01
2017-11-25T09:50:48.232Z,86.07
2017-11-25T09:51:50.700Z,85.54
2017-11-25T09:52:53.186Z,86.19
2017-11-25T09:53:55.749Z,85.64
2017-11-25T09:54:58.226Z,84.74
2017-11-25T09:56:00.807Z,84.13
2017-11-25T09:57:03.388Z,83.79
2017-11-25T09:58:05.884Z,83.37
2017-11-25T09:59:08.378Z,83.98
2017-11-25T10:00:10.860Z,83.22
2017-11-25T10:01:13.370Z,84.18
2017-11-25T10:02:15.914Z,84.50
2017-11-25T10:03:18.454Z,83.07
2017-11-25T10:04:20.942Z,83.08
2017-11-25T10:05:23.403Z,82.80
2017-11-25T10:06:25.909Z,83.12
2017-11-25T10:07:28.419Z,83.14
2017-11-25T10:08:30.931Z,83.46
2017-11-25T10:09:33.477Z,83.22
2017-11-25T10:10:35.979Z,82.55
2017-11-25T10:11:38.571Z,82.80
2017-11-25T10:12:41.105Z,83.13
2017-11-25T10:13:43.571Z,83.63
2017-11-25T10:15:47.879Z,83.94
2017-11-25T10:16:50.403Z,83.35
2017-11-25T10:17:52.892Z,84.03
2017-11-25T10:18:55.406Z,83.44
2017-11-25T10:19:57.917Z,83.15
2017-11-25T10:21:00.403Z,83.68
2017-11-25T10:22:02.957Z,83.58
2017-11-25T10:23:05.467Z,83.46
2017-11-25T10:24:07.942Z,83.62
2017-11-25T10:25:10.425Z,83.87
2017-11-25T10:26:12.963Z,84.47
2017-11-25T10:27:15.456Z,84.32
2017-11-25T10:28:17.961Z,84.31
2017-11-25T10:29:20.692Z,81.75
2017-11-25T10:30:23.348Z,80.72
2017-11-25T10:31:25.895Z,80.20
2017-11-25T10:32:28.457Z,80.53
2017-11-25T10:33:30.924Z,81.53
2017-11-25T10:34:33.406Z,81.44
2017-11-25T10:35:35.937Z,81.75
2017-11-25T10:36:38.463Z,81.91
2017-11-25T10:37:40.970Z,81.41
2017-11-25T10:38:45.091Z,81.46
2017-11-25T10:39:47.565Z,80.65
2017-11-25T10:40:50.055Z,81.31
2017-11-25T10:41:52.705Z,81.65
2017-11-25T10:42:55.205Z,82.55
2017-11-25T10:43:57.783Z,82.10
2017-11-25T10:45:00.346Z,81.91
2017-11-25T10:46:02.822Z,81.76
2017-11-25T10:47:05.327Z,82.51
2017-11-25T10:48:07.844Z,81.61
2017-11-25T10:49:10.305Z,82.38
2017-11-25T10:50:12.839Z,81.72
2017-11-25T10:51:15.299Z,80.17
2017-11-25T10:52:17.769Z,81.82
2017-11-25T10:53:20.271Z,80.47
2017-11-25T10:54:22.739Z,80.25
2017-11-25T10:55:25.211Z,80.75
2017-11-25T10:56:28.141Z,80.77
2017-11-25T10:57:30.614Z,79.50
2017-11-25T10:58:33.106Z,79.75
2017-11-25T10:59:35.573Z,78.51
2017-11-25T11:00:38.037Z,78.21
2017-11-25T11:01:40.559Z,76.95
2017-11-25T11:02:43.062Z,77.37
2017-11-25T11:03:45.571Z,76.60
2017-11-25T11:04:48.043Z,77.60
2017-11-25T11:05:50.533Z,77.51
2017-11-25T11:06:53.041Z,77.26
2017-11-25T11:07:55.537Z,78.53
2017-11-25T11:08:58.028Z,77.55
2017-11-25T11:10:00.501Z,78.66
2017-11-25T11:11:02.993Z,78.82
2017-11-25T11:12:05.492Z,79.10
2017-11-25T11:13:07.974Z,78.60
2017-11-25T11:14:10.480Z,79.19
2017-11-25T11:15:12.952Z,77.77
2017-11-25T11:16:15.420Z,77.68
2017-11-25T11:17:17.884Z,77.73
2017-11-25T11:18:20.362Z,77.79
2017-11-25T11:19:22.867Z,78.37
2017-11-25T11:20:25.357Z,79.18
2017-11-25T11:21:27.837Z,78.09
2017-11-25T11:22:30.324Z,78.17
2017-11-25T11:23:32.806Z,79.92
2017-11-25T11:24:35.309Z,80.21
2017-11-25T11:25:37.791Z,79.93
2017-11-25T11:26:40.327Z,80.27
2017-11-25T11:27:42.789Z,78.99
2017-11-25T11:28:45.260Z,78.68
2017-11-25T11:29:47.765Z,78.77
2017-11-25T11:30:50.239Z,78.58
2017-11-25T11:31:52.762Z,78.16
2017-11-25T11:32:55.235Z,77.78
2017-11-25T11:33:57.718Z,78.36
2017-11-25T11:35:00.204Z,78.38
2017-11-25T11:36:02.693Z,77.75
2017-11-25T11:37:05.176Z,77.08
2017-11-25T11:38:07.668Z,77.47
2017-11-25T11:39:10.128Z,77.17
2017-11-25T11:40:12.674Z,76.24
2017-11-25T11:41:15.149Z,75.96
2017-11-25T11:42:17.640Z,75.25
2017-11-25T11:43:20.147Z,75.50
2017-11-25T11:44:22.635Z,76.46
2017-11-25T11:45:25.139Z,75.88
2017-11-25T11:46:27.624Z,75.04
2017-11-25T11:47:30.084Z,75.83
2017-11-25T11:48:32.552Z,74.53
2017-11-25T11:49:35.045Z,72.81
2017-11-25T11:50:37.589Z,74.70
2017-11-25T11:51:40.052Z,74.78
2017-11-25T11:52:42.551Z,75.14
2017-11-25T11:53:45.112Z,75.78
2017-11-25T11:54:47.586Z,75.07
2017-11-25T11:55:50.397Z,75.02
2017-11-25T11:56:52.870Z,74.50
2017-11-25T11:57:55.434Z,75.09
2017-11-25T11:58:58.108Z,77.10
2017-11-25T12:00:00.989Z,75.53
2017-11-25T12:01:03.860Z,75.79
2017-11-25T12:02:06.321Z,75.20
2017-11-25T12:03:09.245Z,75.32
2017-11-25T12:04:11.847Z,75.49
2017-11-25T12:05:14.425Z,75.49
2017-11-25T12:06:17.102Z,75.96
2017-11-25T12:07:19.802Z,74.92
2017-11-25T12:08:22.317Z,75.09
2017-11-25T12:09:24.806Z,73.39
2017-11-25T12:10:27.514Z,72.79
2017-11-25T12:11:30.055Z,74.38
2017-11-25T12:12:32.562Z,74.09
2017-11-25T12:13:35.041Z,74.04
2017-11-25T12:14:37.520Z,74.59
2017-11-25T12:15:40.007Z,75.53
2017-11-25T12:16:42.502Z,75.45
2017-11-25T12:17:44.973Z,75.61
2017-11-25T12:18:47.446Z,75.31
2017-11-25T12:19:49.919Z,76.83
2017-11-25T12:20:52.399Z,77.35
2017-11-25T12:21:54.880Z,77.95
2017-11-25T12:22:57.357Z,74.58
2017-11-25T12:23:59.868Z,72.79
2017-11-25T12:25:02.333Z,70.78
2017-11-25T12:26:04.820Z,71.13
2017-11-25T12:27:07.327Z,72.97
2017-11-25T12:28:09.796Z,73.49
2017-11-25T12:29:12.263Z,74.25
2017-11-25T12:30:14.732Z,73.18
2017-11-25T12:31:17.205Z,71.32
2017-11-25T12:32:19.693Z,69.24
2017-11-25T12:33:22.178Z,67.93
2017-11-25T12:34:24.636Z,71.03
2017-11-25T12:35:27.115Z,70.61
2017-11-25T12:36:29.598Z,71.93
2017-11-25T12:37:32.081Z,71.17
2017-11-25T12:38:34.564Z,72.12
2017-11-25T12:39:37.040Z,72.88
2017-11-25T12:40:39.518Z,71.59
2017-11-25T12:41:41.976Z,70.20
2017-11-25T12:42:44.517Z,70.87
2017-11-25T12:43:47.077Z,71.59
2017-11-25T12:44:49.542Z,69.81
2017-11-25T12:45:52.007Z,69.97
2017-11-25T12:46:54.478Z,72.06
2017-11-25T12:47:56.962Z,72.69
2017-11-25T12:48:59.414Z,70.01
2017-11-25T12:50:01.880Z,68.95
2017-11-25T12:51:04.355Z,68.54
2017-11-25T12:52:06.827Z,69.42
2017-11-25T12:53:09.311Z,69.07
2017-11-25T12:54:11.787Z,70.18
2017-11-25T12:55:14.254Z,69.54
2017-11-25T12:56:16.725Z,70.18
2017-11-25T12:57:19.184Z,69.97
2017-11-25T12:58:21.665Z,69.93
2017-11-25T12:59:24.128Z,70.39
2017-11-25T13:00:26.594Z,69.32
2017-11-25T13:01:29.057Z,70.67
2017-11-25T13:02:31.523Z,70.54
2017-11-25T13:03:34.020Z,71.18
2017-11-25T13:04:36.517Z,72.09
2017-11-25T13:05:38.989Z,70.91
2017-11-25T13:06:41.468Z,70.68
2017-11-25T13:07:43.944Z,72.18
2017-11-25T13:08:46.433Z,71.82
2017-11-25T13:09:48.951Z,72.12
2017-11-25T13:10:51.441Z,72.78
2017-11-25T13:11:53.912Z,71.69
2017-11-25T13:12:56.375Z,72.41
2017-11-25T13:13:58.864Z,72.23
2017-11-25T13:15:01.329Z,71.30
2017-11-25T13:16:03.789Z,71.61
2017-11-25T13:17:06.255Z,72.42
2017-11-25T13:18:08.792Z,72.60
2017-11-25T13:19:11.290Z,72.33
2017-11-25T13:20:13.747Z,70.58
2017-11-25T13:21:16.210Z,69.77
2017-11-25T13:22:18.660Z,69.74
2017-11-25T13:23:21.131Z,69.92
2017-11-25T13:24:23.608Z,71.51
2017-11-25T13:25:26.078Z,73.56
2017-11-25T13:26:28.543Z,72.18